sensor_id;sensor_type;location;lat;lon;timestamp;P1;durP1;ratioP1;P2;durP2;ratioP2
6755;SDS011;3415;51.148;7.014;2022-07-10T00:02:03;1.00;;;0.90;;
6755;SDS011;3415;51.148;7.014;2022-07-10T00:04:31;2.13;;;1.00;;
6755;SDS011;3415;51.148;7.014;2022-07-10T00:06:58;0.90;;;0.90;;
6755;SDS011;3415;51.148;7.014;2022-07-10T00:09:27;1.63;;;1.10;;
6755;SDS011;3415;51.148;7.014;2022-07-10T00:11:54;1.80;;;1.10;;
6755;SDS011;3415;51.148;7.014;2022-07-10T00:14:21;2.30;;;1.10;;
6755;SDS011;3415;51.148;7.014;2022-07-10T00:16:48;1.90;;;1.27;;
6755;SDS011;3415;51.148;7.014;2022-07-10T00:19:15;2.63;;;1.40;;
6755;SDS011;3415;51.148;7.014;2022-07-10T00:21:44;1.67;;;1.50;;
6755;SDS011;3415;51.148;7.014;2022-07-10T00:24:11;13.90;;;2.40;;
6755;SDS011;3415;51.148;7.014;2022-07-10T00:26:37;1.80;;;1.30;;
6755;SDS011;3415;51.148;7.014;2022-07-10T00:29:04;2.20;;;1.10;;
6755;SDS011;3415;51.148;7.014;2022-07-10T00:31:31;1.50;;;1.10;;
6755;SDS011;3415;51.148;7.014;2022-07-10T00:33:58;4.07;;;1.30;;
6755;SDS011;3415;51.148;7.014;2022-07-10T00:36:25;2.60;;;1.13;;
6755;SDS011;3415;51.148;7.014;2022-07-10T00:38:53;2.77;;;1.33;;
6755;SDS011;3415;51.148;7.014;2022-07-10T00:41:20;5.43;;;1.13;;
6755;SDS011;3415;51.148;7.014;2022-07-10T00:43:53;1.20;;;1.10;;
6755;SDS011;3415;51.148;7.014;2022-07-10T00:46:22;3.23;;;1.30;;
6755;SDS011;3415;51.148;7.014;2022-07-10T00:48:49;1.70;;;1.23;;
6755;SDS011;3415;51.148;7.014;2022-07-10T00:51:17;1.63;;;1.30;;
6755;SDS011;3415;51.148;7.014;2022-07-10T00:53:45;2.33;;;1.50;;
6755;SDS011;3415;51.148;7.014;2022-07-10T00:56:15;3.33;;;1.07;;
6755;SDS011;3415;51.148;7.014;2022-07-10T00:58:43;1.90;;;1.30;;
6755;SDS011;3415;51.148;7.014;2022-07-10T01:01:11;1.73;;;1.10;;
6755;SDS011;3415;51.148;7.014;2022-07-10T01:03:38;1.60;;;1.10;;
6755;SDS011;3415;51.148;7.014;2022-07-10T01:06:05;5.23;;;0.83;;
6755;SDS011;3415;51.148;7.014;2022-07-10T01:08:32;1.20;;;1.10;;
6755;SDS011;3415;51.148;7.014;2022-07-10T01:11:00;1.83;;;1.30;;
6755;SDS011;3415;51.148;7.014;2022-07-10T01:13:28;4.37;;;1.23;;
6755;SDS011;3415;51.148;7.014;2022-07-10T01:15:56;4.73;;;1.00;;
6755;SDS011;3415;51.148;7.014;2022-07-10T01:18:24;2.53;;;0.90;;
6755;SDS011;3415;51.148;7.014;2022-07-10T01:20:53;1.73;;;1.10;;
6755;SDS011;3415;51.148;7.014;2022-07-10T01:23:20;1.13;;;1.03;;
6755;SDS011;3415;51.148;7.014;2022-07-10T01:25:47;1.33;;;1.10;;
6755;SDS011;3415;51.148;7.014;2022-07-10T01:28:15;6.80;;;1.57;;
6755;SDS011;3415;51.148;7.014;2022-07-10T01:30:42;2.20;;;1.20;;
6755;SDS011;3415;51.148;7.014;2022-07-10T01:33:09;2.23;;;0.93;;
6755;SDS011;3415;51.148;7.014;2022-07-10T01:35:36;7.40;;;1.63;;
6755;SDS011;3415;51.148;7.014;2022-07-10T01:38:05;2.00;;;1.07;;
6755;SDS011;3415;51.148;7.014;2022-07-10T01:40:31;2.20;;;1.30;;
6755;SDS011;3415;51.148;7.014;2022-07-10T01:42:58;1.37;;;1.13;;
6755;SDS011;3415;51.148;7.014;2022-07-10T01:45:26;6.03;;;1.20;;
6755;SDS011;3415;51.148;7.014;2022-07-10T01:47:52;3.20;;;1.17;;
6755;SDS011;3415;51.148;7.014;2022-07-10T01:50:19;2.87;;;1.00;;
6755;SDS011;3415;51.148;7.014;2022-07-10T01:52:46;7.53;;;1.30;;
6755;SDS011;3415;51.148;7.014;2022-07-10T01:55:14;2.30;;;1.20;;
6755;SDS011;3415;51.148;7.014;2022-07-10T01:57:42;2.43;;;1.03;;
6755;SDS011;3415;51.148;7.014;2022-07-10T02:00:09;5.40;;;1.30;;
6755;SDS011;3415;51.148;7.014;2022-07-10T02:02:36;5.60;;;2.17;;
6755;SDS011;3415;51.148;7.014;2022-07-10T02:05:03;2.77;;;1.10;;
6755;SDS011;3415;51.148;7.014;2022-07-10T02:07:30;8.80;;;1.53;;
6755;SDS011;3415;51.148;7.014;2022-07-10T02:09:57;3.20;;;1.10;;
6755;SDS011;3415;51.148;7.014;2022-07-10T02:12:25;1.10;;;1.00;;
6755;SDS011;3415;51.148;7.014;2022-07-10T02:14:52;1.97;;;0.80;;
6755;SDS011;3415;51.148;7.014;2022-07-10T02:17:21;3.87;;;1.40;;
6755;SDS011;3415;51.148;7.014;2022-07-10T02:19:48;1.40;;;0.93;;
6755;SDS011;3415;51.148;7.014;2022-07-10T02:22:15;3.20;;;1.00;;
6755;SDS011;3415;51.148;7.014;2022-07-10T02:24:42;5.73;;;1.00;;
6755;SDS011;3415;51.148;7.014;2022-07-10T02:27:09;1.20;;;1.00;;
6755;SDS011;3415;51.148;7.014;2022-07-10T02:29:37;1.40;;;1.00;;
6755;SDS011;3415;51.148;7.014;2022-07-10T02:32:04;1.73;;;0.97;;
6755;SDS011;3415;51.148;7.014;2022-07-10T02:34:31;4.53;;;1.13;;
6755;SDS011;3415;51.148;7.014;2022-07-10T02:36:58;1.20;;;0.90;;
6755;SDS011;3415;51.148;7.014;2022-07-10T02:39:25;2.57;;;1.67;;
6755;SDS011;3415;51.148;7.014;2022-07-10T02:41:52;2.60;;;1.00;;
6755;SDS011;3415;51.148;7.014;2022-07-10T02:44:19;1.40;;;1.13;;
6755;SDS011;3415;51.148;7.014;2022-07-10T02:46:47;1.53;;;0.90;;
6755;SDS011;3415;51.148;7.014;2022-07-10T02:49:14;2.80;;;0.77;;
6755;SDS011;3415;51.148;7.014;2022-07-10T02:51:41;1.27;;;0.90;;
6755;SDS011;3415;51.148;7.014;2022-07-10T02:54:07;2.87;;;1.10;;
6755;SDS011;3415;51.148;7.014;2022-07-10T02:56:34;3.00;;;1.07;;
6755;SDS011;3415;51.148;7.014;2022-07-10T02:59:02;1.53;;;1.10;;
6755;SDS011;3415;51.148;7.014;2022-07-10T03:01:29;3.97;;;1.20;;
6755;SDS011;3415;51.148;7.014;2022-07-10T03:03:57;1.17;;;0.90;;
6755;SDS011;3415;51.148;7.014;2022-07-10T03:06:26;4.93;;;1.20;;
6755;SDS011;3415;51.148;7.014;2022-07-10T03:08:53;1.80;;;1.00;;
6755;SDS011;3415;51.148;7.014;2022-07-10T03:11:20;2.43;;;0.90;;
6755;SDS011;3415;51.148;7.014;2022-07-10T03:13:47;4.40;;;1.10;;
6755;SDS011;3415;51.148;7.014;2022-07-10T03:16:14;3.23;;;1.10;;
6755;SDS011;3415;51.148;7.014;2022-07-10T03:18:41;2.10;;;1.17;;
6755;SDS011;3415;51.148;7.014;2022-07-10T03:21:09;1.23;;;1.07;;
6755;SDS011;3415;51.148;7.014;2022-07-10T03:23:36;1.87;;;1.17;;
6755;SDS011;3415;51.148;7.014;2022-07-10T03:26:04;1.33;;;1.10;;
6755;SDS011;3415;51.148;7.014;2022-07-10T03:28:31;1.57;;;1.10;;
6755;SDS011;3415;51.148;7.014;2022-07-10T03:30:58;4.77;;;1.23;;
6755;SDS011;3415;51.148;7.014;2022-07-10T03:33:25;1.53;;;1.10;;
6755;SDS011;3415;51.148;7.014;2022-07-10T03:35:52;1.10;;;0.80;;
6755;SDS011;3415;51.148;7.014;2022-07-10T03:38:20;2.47;;;1.20;;
6755;SDS011;3415;51.148;7.014;2022-07-10T03:40:47;2.63;;;1.07;;
6755;SDS011;3415;51.148;7.014;2022-07-10T03:43:14;3.07;;;1.13;;
6755;SDS011;3415;51.148;7.014;2022-07-10T03:45:41;4.17;;;0.90;;
6755;SDS011;3415;51.148;7.014;2022-07-10T03:48:08;1.30;;;0.90;;
6755;SDS011;3415;51.148;7.014;2022-07-10T03:50:34;2.93;;;0.97;;
6755;SDS011;3415;51.148;7.014;2022-07-10T03:53:01;1.67;;;1.07;;
6755;SDS011;3415;51.148;7.014;2022-07-10T03:55:30;1.63;;;1.10;;
6755;SDS011;3415;51.148;7.014;2022-07-10T03:57:57;1.17;;;1.03;;
6755;SDS011;3415;51.148;7.014;2022-07-10T04:00:25;5.40;;;1.20;;
6755;SDS011;3415;51.148;7.014;2022-07-10T04:02:56;6.47;;;1.70;;
6755;SDS011;3415;51.148;7.014;2022-07-10T04:05:23;1.43;;;1.00;;
6755;SDS011;3415;51.148;7.014;2022-07-10T04:07:50;1.80;;;1.00;;
6755;SDS011;3415;51.148;7.014;2022-07-10T04:10:17;4.07;;;1.20;;
6755;SDS011;3415;51.148;7.014;2022-07-10T04:12:46;3.13;;;1.53;;
6755;SDS011;3415;51.148;7.014;2022-07-10T04:15:13;1.50;;;1.20;;
6755;SDS011;3415;51.148;7.014;2022-07-10T04:17:41;1.73;;;0.90;;
6755;SDS011;3415;51.148;7.014;2022-07-10T04:20:08;1.03;;;0.93;;
6755;SDS011;3415;51.148;7.014;2022-07-10T04:22:35;3.80;;;1.30;;
6755;SDS011;3415;51.148;7.014;2022-07-10T04:25:03;4.73;;;1.17;;
6755;SDS011;3415;51.148;7.014;2022-07-10T04:27:31;4.83;;;1.40;;
6755;SDS011;3415;51.148;7.014;2022-07-10T04:29:59;1.53;;;1.17;;
6755;SDS011;3415;51.148;7.014;2022-07-10T04:32:26;1.57;;;1.00;;
6755;SDS011;3415;51.148;7.014;2022-07-10T04:34:53;6.73;;;1.13;;
6755;SDS011;3415;51.148;7.014;2022-07-10T04:37:20;5.20;;;1.10;;
6755;SDS011;3415;51.148;7.014;2022-07-10T04:39:47;6.73;;;1.27;;
6755;SDS011;3415;51.148;7.014;2022-07-10T04:42:14;3.63;;;1.27;;
6755;SDS011;3415;51.148;7.014;2022-07-10T04:44:41;2.37;;;1.33;;
6755;SDS011;3415;51.148;7.014;2022-07-10T04:47:09;3.10;;;1.20;;
6755;SDS011;3415;51.148;7.014;2022-07-10T04:49:36;2.63;;;1.07;;
6755;SDS011;3415;51.148;7.014;2022-07-10T04:52:03;1.90;;;1.40;;
6755;SDS011;3415;51.148;7.014;2022-07-10T04:54:31;1.77;;;1.10;;
6755;SDS011;3415;51.148;7.014;2022-07-10T04:56:58;2.53;;;1.13;;
6755;SDS011;3415;51.148;7.014;2022-07-10T04:59:25;1.90;;;1.10;;
6755;SDS011;3415;51.148;7.014;2022-07-10T05:01:52;2.73;;;1.40;;
6755;SDS011;3415;51.148;7.014;2022-07-10T05:04:20;3.67;;;1.10;;
6755;SDS011;3415;51.148;7.014;2022-07-10T05:06:47;9.63;;;1.63;;
6755;SDS011;3415;51.148;7.014;2022-07-10T05:09:14;2.57;;;1.40;;
6755;SDS011;3415;51.148;7.014;2022-07-10T05:11:41;12.33;;;1.70;;
6755;SDS011;3415;51.148;7.014;2022-07-10T05:14:07;2.13;;;1.40;;
6755;SDS011;3415;51.148;7.014;2022-07-10T05:16:34;1.70;;;1.23;;
6755;SDS011;3415;51.148;7.014;2022-07-10T05:19:01;17.90;;;1.90;;
6755;SDS011;3415;51.148;7.014;2022-07-10T05:21:30;4.40;;;1.60;;
6755;SDS011;3415;51.148;7.014;2022-07-10T05:23:56;3.90;;;1.47;;
6755;SDS011;3415;51.148;7.014;2022-07-10T05:26:23;2.80;;;1.47;;
6755;SDS011;3415;51.148;7.014;2022-07-10T05:28:50;4.33;;;1.40;;
6755;SDS011;3415;51.148;7.014;2022-07-10T05:31:17;4.63;;;1.90;;
6755;SDS011;3415;51.148;7.014;2022-07-10T05:33:44;5.40;;;1.50;;
6755;SDS011;3415;51.148;7.014;2022-07-10T05:36:11;6.90;;;1.67;;
6755;SDS011;3415;51.148;7.014;2022-07-10T05:38:39;4.70;;;1.80;;
6755;SDS011;3415;51.148;7.014;2022-07-10T05:41:06;6.17;;;1.73;;
6755;SDS011;3415;51.148;7.014;2022-07-10T05:43:33;4.50;;;1.53;;
6755;SDS011;3415;51.148;7.014;2022-07-10T05:46:00;4.63;;;1.20;;
6755;SDS011;3415;51.148;7.014;2022-07-10T05:48:27;11.13;;;1.97;;
6755;SDS011;3415;51.148;7.014;2022-07-10T05:50:53;5.93;;;1.23;;
6755;SDS011;3415;51.148;7.014;2022-07-10T05:53:21;12.43;;;2.37;;
6755;SDS011;3415;51.148;7.014;2022-07-10T05:55:49;9.00;;;3.37;;
6755;SDS011;3415;51.148;7.014;2022-07-10T05:58:16;7.93;;;1.43;;
6755;SDS011;3415;51.148;7.014;2022-07-10T06:00:43;7.40;;;1.30;;
6755;SDS011;3415;51.148;7.014;2022-07-10T06:03:11;3.03;;;1.27;;
6755;SDS011;3415;51.148;7.014;2022-07-10T06:05:38;5.00;;;1.47;;
6755;SDS011;3415;51.148;7.014;2022-07-10T06:08:05;9.30;;;2.00;;
6755;SDS011;3415;51.148;7.014;2022-07-10T06:10:32;7.20;;;1.53;;
6755;SDS011;3415;51.148;7.014;2022-07-10T06:13:00;6.47;;;1.33;;
6755;SDS011;3415;51.148;7.014;2022-07-10T06:15:27;8.30;;;1.40;;
6755;SDS011;3415;51.148;7.014;2022-07-10T06:17:55;7.10;;;1.60;;
6755;SDS011;3415;51.148;7.014;2022-07-10T06:20:23;7.57;;;1.30;;
6755;SDS011;3415;51.148;7.014;2022-07-10T06:22:50;5.90;;;1.30;;
6755;SDS011;3415;51.148;7.014;2022-07-10T06:25:17;10.33;;;1.63;;
6755;SDS011;3415;51.148;7.014;2022-07-10T06:27:43;10.17;;;1.37;;
6755;SDS011;3415;51.148;7.014;2022-07-10T06:30:12;7.60;;;2.13;;
6755;SDS011;3415;51.148;7.014;2022-07-10T06:32:39;5.73;;;1.90;;
6755;SDS011;3415;51.148;7.014;2022-07-10T06:35:06;7.20;;;1.93;;
6755;SDS011;3415;51.148;7.014;2022-07-10T06:37:33;9.87;;;2.07;;
6755;SDS011;3415;51.148;7.014;2022-07-10T06:40:00;7.60;;;1.57;;
6755;SDS011;3415;51.148;7.014;2022-07-10T06:42:27;5.97;;;1.63;;
6755;SDS011;3415;51.148;7.014;2022-07-10T06:44:54;4.53;;;1.73;;
6755;SDS011;3415;51.148;7.014;2022-07-10T06:47:23;6.97;;;1.67;;
6755;SDS011;3415;51.148;7.014;2022-07-10T06:50:08;8.00;;;1.50;;
6755;SDS011;3415;51.148;7.014;2022-07-10T06:52:36;4.80;;;1.50;;
6755;SDS011;3415;51.148;7.014;2022-07-10T06:55:03;5.80;;;1.67;;
6755;SDS011;3415;51.148;7.014;2022-07-10T06:57:31;15.63;;;1.77;;
6755;SDS011;3415;51.148;7.014;2022-07-10T06:59:58;7.40;;;1.43;;
6755;SDS011;3415;51.148;7.014;2022-07-10T07:02:26;6.40;;;1.40;;
6755;SDS011;3415;51.148;7.014;2022-07-10T07:04:53;7.70;;;2.47;;
6755;SDS011;3415;51.148;7.014;2022-07-10T07:07:20;5.70;;;1.20;;
6755;SDS011;3415;51.148;7.014;2022-07-10T07:09:47;4.43;;;1.40;;
6755;SDS011;3415;51.148;7.014;2022-07-10T07:12:15;2.90;;;1.20;;
6755;SDS011;3415;51.148;7.014;2022-07-10T07:14:42;2.50;;;1.10;;
6755;SDS011;3415;51.148;7.014;2022-07-10T07:17:09;4.50;;;1.20;;
6755;SDS011;3415;51.148;7.014;2022-07-10T07:19:40;6.83;;;1.37;;
6755;SDS011;3415;51.148;7.014;2022-07-10T07:22:25;5.70;;;1.40;;
6755;SDS011;3415;51.148;7.014;2022-07-10T07:25:09;3.47;;;1.10;;
6755;SDS011;3415;51.148;7.014;2022-07-10T07:27:37;9.37;;;1.90;;
6755;SDS011;3415;51.148;7.014;2022-07-10T07:30:05;12.80;;;1.70;;
6755;SDS011;3415;51.148;7.014;2022-07-10T07:32:33;4.97;;;1.40;;
6755;SDS011;3415;51.148;7.014;2022-07-10T07:35:02;4.10;;;1.23;;
6755;SDS011;3415;51.148;7.014;2022-07-10T07:37:36;4.00;;;1.23;;
6755;SDS011;3415;51.148;7.014;2022-07-10T07:40:03;5.40;;;1.57;;
6755;SDS011;3415;51.148;7.014;2022-07-10T07:42:32;5.07;;;1.20;;
6755;SDS011;3415;51.148;7.014;2022-07-10T07:44:59;7.77;;;2.13;;
6755;SDS011;3415;51.148;7.014;2022-07-10T07:47:26;7.43;;;1.80;;
6755;SDS011;3415;51.148;7.014;2022-07-10T07:49:53;4.00;;;1.30;;
6755;SDS011;3415;51.148;7.014;2022-07-10T07:52:21;3.53;;;0.97;;
6755;SDS011;3415;51.148;7.014;2022-07-10T07:54:48;5.30;;;1.13;;
6755;SDS011;3415;51.148;7.014;2022-07-10T07:57:15;4.83;;;1.30;;
6755;SDS011;3415;51.148;7.014;2022-07-10T07:59:43;9.27;;;1.80;;
6755;SDS011;3415;51.148;7.014;2022-07-10T08:02:09;8.30;;;1.50;;
6755;SDS011;3415;51.148;7.014;2022-07-10T08:04:36;8.03;;;2.57;;
6755;SDS011;3415;51.148;7.014;2022-07-10T08:07:03;6.40;;;2.17;;
6755;SDS011;3415;51.148;7.014;2022-07-10T08:09:31;6.77;;;1.50;;
6755;SDS011;3415;51.148;7.014;2022-07-10T08:11:58;3.93;;;1.40;;
6755;SDS011;3415;51.148;7.014;2022-07-10T08:14:25;3.63;;;1.77;;
6755;SDS011;3415;51.148;7.014;2022-07-10T08:16:52;7.97;;;1.70;;
6755;SDS011;3415;51.148;7.014;2022-07-10T08:19:19;9.00;;;2.20;;
6755;SDS011;3415;51.148;7.014;2022-07-10T08:21:46;4.80;;;1.70;;
6755;SDS011;3415;51.148;7.014;2022-07-10T08:24:12;4.93;;;1.50;;
6755;SDS011;3415;51.148;7.014;2022-07-10T08:26:41;6.50;;;2.10;;
6755;SDS011;3415;51.148;7.014;2022-07-10T08:29:08;5.03;;;1.80;;
6755;SDS011;3415;51.148;7.014;2022-07-10T08:31:35;7.73;;;2.10;;
6755;SDS011;3415;51.148;7.014;2022-07-10T08:34:02;5.40;;;2.70;;
6755;SDS011;3415;51.148;7.014;2022-07-10T08:36:29;4.30;;;2.17;;
6755;SDS011;3415;51.148;7.014;2022-07-10T08:38:56;4.30;;;2.33;;
6755;SDS011;3415;51.148;7.014;2022-07-10T08:41:24;4.40;;;2.10;;
6755;SDS011;3415;51.148;7.014;2022-07-10T08:43:53;5.67;;;2.23;;
6755;SDS011;3415;51.148;7.014;2022-07-10T08:46:20;12.77;;;2.17;;
6755;SDS011;3415;51.148;7.014;2022-07-10T08:48:47;7.80;;;2.83;;
6755;SDS011;3415;51.148;7.014;2022-07-10T08:51:19;9.87;;;2.33;;
6755;SDS011;3415;51.148;7.014;2022-07-10T08:53:50;4.63;;;2.40;;
6755;SDS011;3415;51.148;7.014;2022-07-10T08:56:17;34.40;;;12.30;;
6755;SDS011;3415;51.148;7.014;2022-07-10T08:58:44;8.73;;;2.93;;
6755;SDS011;3415;51.148;7.014;2022-07-10T09:01:14;11.07;;;3.60;;
6755;SDS011;3415;51.148;7.014;2022-07-10T09:03:47;13.67;;;2.70;;
6755;SDS011;3415;51.148;7.014;2022-07-10T09:06:14;7.20;;;2.37;;
6755;SDS011;3415;51.148;7.014;2022-07-10T09:08:57;8.00;;;2.50;;
6755;SDS011;3415;51.148;7.014;2022-07-10T09:11:24;6.10;;;2.63;;
6755;SDS011;3415;51.148;7.014;2022-07-10T09:13:55;6.80;;;2.40;;
6755;SDS011;3415;51.148;7.014;2022-07-10T09:16:24;7.13;;;2.03;;
6755;SDS011;3415;51.148;7.014;2022-07-10T09:18:52;4.33;;;1.67;;
6755;SDS011;3415;51.148;7.014;2022-07-10T09:21:20;5.17;;;1.60;;
6755;SDS011;3415;51.148;7.014;2022-07-10T09:23:47;5.13;;;2.13;;
6755;SDS011;3415;51.148;7.014;2022-07-10T09:26:15;7.13;;;2.37;;
6755;SDS011;3415;51.148;7.014;2022-07-10T09:28:41;4.83;;;2.30;;
6755;SDS011;3415;51.148;7.014;2022-07-10T09:31:08;8.60;;;3.80;;
6755;SDS011;3415;51.148;7.014;2022-07-10T09:33:37;7.17;;;2.70;;
6755;SDS011;3415;51.148;7.014;2022-07-10T09:36:06;7.83;;;2.33;;
6755;SDS011;3415;51.148;7.014;2022-07-10T09:41:20;6.17;;;2.40;;
6755;SDS011;3415;51.148;7.014;2022-07-10T09:43:48;8.97;;;2.60;;
6755;SDS011;3415;51.148;7.014;2022-07-10T09:46:17;7.00;;;3.27;;
6755;SDS011;3415;51.148;7.014;2022-07-10T09:48:46;6.73;;;2.87;;
6755;SDS011;3415;51.148;7.014;2022-07-10T09:51:13;5.30;;;2.80;;
6755;SDS011;3415;51.148;7.014;2022-07-10T09:53:40;9.60;;;3.40;;
6755;SDS011;3415;51.148;7.014;2022-07-10T09:56:08;5.33;;;3.03;;
6755;SDS011;3415;51.148;7.014;2022-07-10T09:58:36;6.00;;;3.50;;
6755;SDS011;3415;51.148;7.014;2022-07-10T10:01:03;7.20;;;3.43;;
6755;SDS011;3415;51.148;7.014;2022-07-10T10:03:32;5.77;;;3.63;;
6755;SDS011;3415;51.148;7.014;2022-07-10T10:06:06;8.70;;;3.23;;
6755;SDS011;3415;51.148;7.014;2022-07-10T10:08:39;7.33;;;4.03;;
6755;SDS011;3415;51.148;7.014;2022-07-10T10:11:16;4.87;;;3.40;;
6755;SDS011;3415;51.148;7.014;2022-07-10T10:13:46;5.80;;;3.40;;
6755;SDS011;3415;51.148;7.014;2022-07-10T10:16:14;5.07;;;3.30;;
6755;SDS011;3415;51.148;7.014;2022-07-10T10:18:42;6.37;;;4.53;;
6755;SDS011;3415;51.148;7.014;2022-07-10T10:21:28;7.87;;;3.20;;
6755;SDS011;3415;51.148;7.014;2022-07-10T10:23:55;5.30;;;4.17;;
6755;SDS011;3415;51.148;7.014;2022-07-10T10:26:22;5.30;;;4.20;;
6755;SDS011;3415;51.148;7.014;2022-07-10T10:28:50;9.70;;;4.23;;
6755;SDS011;3415;51.148;7.014;2022-07-10T10:31:18;5.77;;;4.20;;
6755;SDS011;3415;51.148;7.014;2022-07-10T10:33:47;8.70;;;4.60;;
6755;SDS011;3415;51.148;7.014;2022-07-10T10:39:18;6.80;;;4.60;;
6755;SDS011;3415;51.148;7.014;2022-07-10T10:41:48;6.83;;;4.50;;
6755;SDS011;3415;51.148;7.014;2022-07-10T10:44:20;10.07;;;4.47;;
6755;SDS011;3415;51.148;7.014;2022-07-10T10:46:57;7.87;;;4.30;;
6755;SDS011;3415;51.148;7.014;2022-07-10T10:49:52;5.03;;;3.70;;
6755;SDS011;3415;51.148;7.014;2022-07-10T10:52:27;8.53;;;4.07;;
6755;SDS011;3415;51.148;7.014;2022-07-10T10:55:07;7.87;;;3.70;;
6755;SDS011;3415;51.148;7.014;2022-07-10T10:57:37;6.40;;;2.90;;
6755;SDS011;3415;51.148;7.014;2022-07-10T11:03:12;7.97;;;2.07;;
6755;SDS011;3415;51.148;7.014;2022-07-10T11:05:41;8.13;;;2.33;;
6755;SDS011;3415;51.148;7.014;2022-07-10T11:08:09;4.30;;;1.87;;
6755;SDS011;3415;51.148;7.014;2022-07-10T11:10:40;5.70;;;1.97;;
6755;SDS011;3415;51.148;7.014;2022-07-10T11:13:08;4.00;;;1.70;;
6755;SDS011;3415;51.148;7.014;2022-07-10T11:15:36;4.47;;;1.60;;
6755;SDS011;3415;51.148;7.014;2022-07-10T11:18:04;3.93;;;1.90;;
6755;SDS011;3415;51.148;7.014;2022-07-10T11:20:33;10.40;;;2.20;;
6755;SDS011;3415;51.148;7.014;2022-07-10T11:23:17;4.63;;;1.73;;
6755;SDS011;3415;51.148;7.014;2022-07-10T11:26:06;3.60;;;1.27;;
6755;SDS011;3415;51.148;7.014;2022-07-10T11:31:18;3.07;;;1.43;;
6755;SDS011;3415;51.148;7.014;2022-07-10T11:33:46;3.17;;;1.57;;
6755;SDS011;3415;51.148;7.014;2022-07-10T11:36:16;1.77;;;1.47;;
6755;SDS011;3415;51.148;7.014;2022-07-10T11:38:45;6.33;;;1.73;;
6755;SDS011;3415;51.148;7.014;2022-07-10T11:41:14;6.27;;;1.90;;
6755;SDS011;3415;51.148;7.014;2022-07-10T11:43:51;2.90;;;1.60;;
6755;SDS011;3415;51.148;7.014;2022-07-10T11:46:19;4.60;;;1.53;;
6755;SDS011;3415;51.148;7.014;2022-07-10T11:48:47;5.50;;;1.90;;
6755;SDS011;3415;51.148;7.014;2022-07-10T11:51:21;5.97;;;2.00;;
6755;SDS011;3415;51.148;7.014;2022-07-10T11:53:53;5.50;;;2.00;;
6755;SDS011;3415;51.148;7.014;2022-07-10T11:56:26;5.10;;;2.10;;
6755;SDS011;3415;51.148;7.014;2022-07-10T11:58:57;4.37;;;1.93;;
6755;SDS011;3415;51.148;7.014;2022-07-10T12:01:25;3.10;;;2.10;;
6755;SDS011;3415;51.148;7.014;2022-07-10T12:03:57;3.67;;;1.83;;
6755;SDS011;3415;51.148;7.014;2022-07-10T12:06:25;3.37;;;1.80;;
6755;SDS011;3415;51.148;7.014;2022-07-10T12:08:52;3.43;;;2.70;;
6755;SDS011;3415;51.148;7.014;2022-07-10T12:11:20;5.47;;;2.00;;
6755;SDS011;3415;51.148;7.014;2022-07-10T12:13:49;3.30;;;2.17;;
6755;SDS011;3415;51.148;7.014;2022-07-10T12:16:18;3.40;;;2.50;;
6755;SDS011;3415;51.148;7.014;2022-07-10T12:18:46;2.03;;;1.83;;
6755;SDS011;3415;51.148;7.014;2022-07-10T12:21:14;6.23;;;2.47;;
6755;SDS011;3415;51.148;7.014;2022-07-10T12:23:44;2.53;;;2.33;;
6755;SDS011;3415;51.148;7.014;2022-07-10T12:26:13;3.20;;;2.90;;
6755;SDS011;3415;51.148;7.014;2022-07-10T12:28:49;4.20;;;2.83;;
6755;SDS011;3415;51.148;7.014;2022-07-10T12:31:24;3.37;;;3.07;;
6755;SDS011;3415;51.148;7.014;2022-07-10T12:33:52;3.03;;;2.73;;
6755;SDS011;3415;51.148;7.014;2022-07-10T12:36:22;3.93;;;3.43;;
6755;SDS011;3415;51.148;7.014;2022-07-10T12:38:53;4.47;;;2.60;;
6755;SDS011;3415;51.148;7.014;2022-07-10T12:41:22;5.30;;;3.20;;
6755;SDS011;3415;51.148;7.014;2022-07-10T12:43:52;2.73;;;2.40;;
6755;SDS011;3415;51.148;7.014;2022-07-10T12:46:20;7.47;;;2.20;;
6755;SDS011;3415;51.148;7.014;2022-07-10T12:49:00;4.57;;;1.80;;
6755;SDS011;3415;51.148;7.014;2022-07-10T12:51:29;2.47;;;1.80;;
6755;SDS011;3415;51.148;7.014;2022-07-10T12:53:57;3.70;;;2.37;;
6755;SDS011;3415;51.148;7.014;2022-07-10T12:56:31;2.70;;;1.90;;
6755;SDS011;3415;51.148;7.014;2022-07-10T12:59:02;5.60;;;2.07;;
6755;SDS011;3415;51.148;7.014;2022-07-10T13:01:41;5.40;;;2.63;;
6755;SDS011;3415;51.148;7.014;2022-07-10T13:04:09;2.90;;;1.93;;
6755;SDS011;3415;51.148;7.014;2022-07-10T13:06:37;3.23;;;2.57;;
6755;SDS011;3415;51.148;7.014;2022-07-10T13:09:18;3.13;;;2.57;;
6755;SDS011;3415;51.148;7.014;2022-07-10T13:11:46;8.87;;;2.47;;
6755;SDS011;3415;51.148;7.014;2022-07-10T13:14:15;2.63;;;2.43;;
6755;SDS011;3415;51.148;7.014;2022-07-10T13:16:41;3.30;;;2.00;;
6755;SDS011;3415;51.148;7.014;2022-07-10T13:19:08;2.60;;;2.20;;
6755;SDS011;3415;51.148;7.014;2022-07-10T13:21:35;4.90;;;2.43;;
6755;SDS011;3415;51.148;7.014;2022-07-10T13:24:02;7.80;;;3.53;;
6755;SDS011;3415;51.148;7.014;2022-07-10T13:26:29;1.90;;;1.77;;
6755;SDS011;3415;51.148;7.014;2022-07-10T13:28:56;3.80;;;2.57;;
6755;SDS011;3415;51.148;7.014;2022-07-10T13:31:25;7.57;;;2.60;;
6755;SDS011;3415;51.148;7.014;2022-07-10T13:33:52;7.33;;;3.00;;
6755;SDS011;3415;51.148;7.014;2022-07-10T13:36:19;5.27;;;2.20;;
6755;SDS011;3415;51.148;7.014;2022-07-10T13:38:46;7.90;;;2.73;;
6755;SDS011;3415;51.148;7.014;2022-07-10T13:41:14;7.73;;;3.20;;
6755;SDS011;3415;51.148;7.014;2022-07-10T13:43:42;4.10;;;2.23;;
6755;SDS011;3415;51.148;7.014;2022-07-10T13:46:09;8.33;;;2.63;;
6755;SDS011;3415;51.148;7.014;2022-07-10T13:48:37;8.63;;;2.87;;
6755;SDS011;3415;51.148;7.014;2022-07-10T13:51:04;6.90;;;2.43;;
6755;SDS011;3415;51.148;7.014;2022-07-10T13:53:31;4.93;;;2.47;;
6755;SDS011;3415;51.148;7.014;2022-07-10T13:55:58;5.50;;;2.80;;
6755;SDS011;3415;51.148;7.014;2022-07-10T13:58:25;6.73;;;2.77;;
6755;SDS011;3415;51.148;7.014;2022-07-10T14:00:52;8.30;;;2.73;;
6755;SDS011;3415;51.148;7.014;2022-07-10T14:03:19;4.20;;;2.30;;
6755;SDS011;3415;51.148;7.014;2022-07-10T14:05:47;3.83;;;2.13;;
6755;SDS011;3415;51.148;7.014;2022-07-10T14:08:14;16.53;;;5.30;;
6755;SDS011;3415;51.148;7.014;2022-07-10T14:10:41;6.57;;;2.43;;
6755;SDS011;3415;51.148;7.014;2022-07-10T14:13:09;5.00;;;2.43;;
6755;SDS011;3415;51.148;7.014;2022-07-10T14:15:36;4.60;;;2.00;;
6755;SDS011;3415;51.148;7.014;2022-07-10T14:18:03;6.20;;;2.30;;
6755;SDS011;3415;51.148;7.014;2022-07-10T14:20:30;5.60;;;2.20;;
6755;SDS011;3415;51.148;7.014;2022-07-10T14:23:19;6.10;;;2.10;;
6755;SDS011;3415;51.148;7.014;2022-07-10T14:25:47;6.40;;;2.43;;
6755;SDS011;3415;51.148;7.014;2022-07-10T14:28:14;7.83;;;2.27;;
6755;SDS011;3415;51.148;7.014;2022-07-10T14:30:41;7.80;;;1.97;;
6755;SDS011;3415;51.148;7.014;2022-07-10T14:33:08;4.17;;;1.80;;
6755;SDS011;3415;51.148;7.014;2022-07-10T14:35:35;3.83;;;1.90;;
6755;SDS011;3415;51.148;7.014;2022-07-10T14:38:03;3.67;;;1.97;;
6755;SDS011;3415;51.148;7.014;2022-07-10T14:40:31;5.30;;;2.70;;
6755;SDS011;3415;51.148;7.014;2022-07-10T14:42:58;3.97;;;1.63;;
6755;SDS011;3415;51.148;7.014;2022-07-10T14:45:25;3.80;;;2.00;;
6755;SDS011;3415;51.148;7.014;2022-07-10T14:47:52;3.87;;;1.83;;
6755;SDS011;3415;51.148;7.014;2022-07-10T14:50:20;4.00;;;1.70;;
6755;SDS011;3415;51.148;7.014;2022-07-10T14:52:48;8.93;;;1.97;;
6755;SDS011;3415;51.148;7.014;2022-07-10T14:55:15;3.83;;;1.70;;
6755;SDS011;3415;51.148;7.014;2022-07-10T14:57:43;3.70;;;2.30;;
6755;SDS011;3415;51.148;7.014;2022-07-10T15:00:10;2.57;;;1.73;;
6755;SDS011;3415;51.148;7.014;2022-07-10T15:02:38;3.70;;;1.70;;
6755;SDS011;3415;51.148;7.014;2022-07-10T15:05:05;6.87;;;1.90;;
6755;SDS011;3415;51.148;7.014;2022-07-10T15:07:32;2.60;;;1.80;;
6755;SDS011;3415;51.148;7.014;2022-07-10T15:10:00;2.53;;;2.00;;
6755;SDS011;3415;51.148;7.014;2022-07-10T15:12:26;10.13;;;3.13;;
6755;SDS011;3415;51.148;7.014;2022-07-10T15:14:57;3.43;;;2.00;;
6755;SDS011;3415;51.148;7.014;2022-07-10T15:17:24;3.60;;;2.30;;
6755;SDS011;3415;51.148;7.014;2022-07-10T15:19:51;2.60;;;1.73;;
6755;SDS011;3415;51.148;7.014;2022-07-10T15:22:18;3.10;;;1.80;;
6755;SDS011;3415;51.148;7.014;2022-07-10T15:24:45;6.03;;;2.27;;
6755;SDS011;3415;51.148;7.014;2022-07-10T15:27:14;3.03;;;2.20;;
6755;SDS011;3415;51.148;7.014;2022-07-10T15:29:41;3.80;;;2.30;;
6755;SDS011;3415;51.148;7.014;2022-07-10T15:32:09;2.87;;;2.40;;
6755;SDS011;3415;51.148;7.014;2022-07-10T15:34:37;3.97;;;2.00;;